createdAt,value
2023-03-29T00:01:06.787Z,2.40
2023-03-29T00:03:35.090Z,2.80
2023-03-29T00:06:04.164Z,8.70
2023-03-29T00:08:38.112Z,3.60
2023-03-29T00:11:06.348Z,2.30
2023-03-29T00:13:35.074Z,2.70
2023-03-29T00:16:03.404Z,3.30
2023-03-29T00:18:31.458Z,3.60
2023-03-29T00:21:00.612Z,2.70
2023-03-29T00:23:29.246Z,2.00
2023-03-29T00:25:57.627Z,8.10
2023-03-29T00:28:26.108Z,3.20
2023-03-29T00:31:10.822Z,3.00
2023-03-29T00:33:39.906Z,2.10
2023-03-29T00:38:38.094Z,1.80
2023-03-29T00:41:08.067Z,4.00
2023-03-29T00:43:57.236Z,3.80
2023-03-29T00:46:27.389Z,1.70
2023-03-29T00:49:02.003Z,2.20
2023-03-29T00:51:32.091Z,4.60
2023-03-29T00:54:03.754Z,3.80
2023-03-29T00:56:37.283Z,2.70
2023-03-29T00:59:16.472Z,2.30
2023-03-29T01:01:54.803Z,3.80
2023-03-29T01:04:36.361Z,2.60
2023-03-29T01:07:25.867Z,3.10
2023-03-29T01:10:27.703Z,3.40
2023-03-29T01:13:03.897Z,4.50
2023-03-29T01:15:32.242Z,2.70
2023-03-29T01:18:02.177Z,2.70
2023-03-29T01:20:49.190Z,7.90
2023-03-29T01:23:26.984Z,2.70
2023-03-29T01:26:19.886Z,4.20
2023-03-29T01:28:57.988Z,3.80
2023-03-29T01:31:33.149Z,9.90
2023-03-29T01:34:09.619Z,3.00
2023-03-29T01:36:54.916Z,4.90
2023-03-29T01:39:23.076Z,2.00
2023-03-29T01:42:02.305Z,10.60
2023-03-29T01:44:39.849Z,2.00
2023-03-29T01:47:13.854Z,2.90
2023-03-29T01:49:50.582Z,3.60
2023-03-29T01:52:25.575Z,2.70
2023-03-29T01:55:01.060Z,2.40
2023-03-29T01:57:33.224Z,3.00
2023-03-29T02:00:08.250Z,8.40
2023-03-29T02:02:44.878Z,2.90
2023-03-29T02:05:15.392Z,8.70
2023-03-29T02:07:46.077Z,3.30
2023-03-29T02:10:16.474Z,1.60
2023-03-29T02:12:44.697Z,3.80
2023-03-29T02:15:15.954Z,2.40
2023-03-29T02:17:44.449Z,8.60
2023-03-29T02:20:20.638Z,2.90
2023-03-29T02:23:02.261Z,4.50
2023-03-29T02:25:32.702Z,3.70
2023-03-29T02:28:01.986Z,6.30
2023-03-29T02:30:48.550Z,2.70
2023-03-29T02:33:25.292Z,2.90
2023-03-29T02:36:05.281Z,2.80
2023-03-29T02:38:34.916Z,8.70
2023-03-29T02:41:04.212Z,4.20
2023-03-29T02:43:34.758Z,2.10
2023-03-29T02:46:05.276Z,3.00
2023-03-29T02:48:37.185Z,2.80
2023-03-29T02:51:33.415Z,8.30
2023-03-29T02:54:23.516Z,2.60
2023-03-29T02:57:06.679Z,2.90
2023-03-29T02:59:35.314Z,14.50
2023-03-29T03:02:03.486Z,5.50
2023-03-29T03:04:35.499Z,8.80
2023-03-29T03:07:07.555Z,8.10
2023-03-29T03:09:35.853Z,4.90
2023-03-29T03:12:04.207Z,4.50
2023-03-29T03:14:32.888Z,1.90
2023-03-29T03:17:03.904Z,4.10
2023-03-29T03:19:33.225Z,2.70
2023-03-29T03:22:01.253Z,4.50
2023-03-29T03:24:29.583Z,8.70
2023-03-29T03:26:58.853Z,2.40
2023-03-29T03:29:28.599Z,9.20
2023-03-29T03:32:15.486Z,2.00
2023-03-29T03:34:49.923Z,3.30
2023-03-29T03:37:18.291Z,2.50
2023-03-29T03:39:46.880Z,3.00
2023-03-29T03:42:15.527Z,1.80
2023-03-29T03:44:44.981Z,5.40
2023-03-29T03:47:39.648Z,3.00
2023-03-29T03:50:28.706Z,2.40
2023-03-29T03:52:57.413Z,4.60
2023-03-29T03:55:25.838Z,3.70
2023-03-29T03:58:13.244Z,2.00
2023-03-29T04:00:42.696Z,2.90
2023-03-29T04:03:24.289Z,4.40
2023-03-29T04:05:53.790Z,8.80
2023-03-29T04:11:10.728Z,3.40
2023-03-29T04:13:42.321Z,3.10
2023-03-29T04:16:26.587Z,3.50
2023-03-29T04:18:55.009Z,2.60
2023-03-29T04:21:23.634Z,3.00
2023-03-29T04:23:51.660Z,3.20
2023-03-29T04:26:19.827Z,4.20
2023-03-29T04:28:50.934Z,3.20
2023-03-29T04:31:24.096Z,9.70
2023-03-29T04:34:09.840Z,3.30
2023-03-29T04:36:39.132Z,5.10
2023-03-29T04:39:11.397Z,8.70
2023-03-29T04:41:40.502Z,8.30
2023-03-29T04:44:20.653Z,7.80
2023-03-29T04:46:49.226Z,8.20
2023-03-29T04:49:37.986Z,9.20
2023-03-29T04:52:09.350Z,8.10
2023-03-29T04:54:38.639Z,8.10
2023-03-29T04:57:21.088Z,10.00
2023-03-29T05:00:15.151Z,8.10
2023-03-29T05:03:13.563Z,8.30
2023-03-29T05:05:56.220Z,6.70
2023-03-29T05:08:24.395Z,8.20
2023-03-29T05:11:10.393Z,9.50
2023-03-29T05:13:38.652Z,7.60
2023-03-29T05:16:08.081Z,9.00
2023-03-29T05:18:37.172Z,8.00
2023-03-29T05:21:06.552Z,10.00
2023-03-29T05:23:35.424Z,10.00
2023-03-29T05:26:09.932Z,9.40
2023-03-29T05:28:38.845Z,9.40
2023-03-29T05:31:08.700Z,9.30
2023-03-29T05:33:38.673Z,9.20
2023-03-29T05:36:11.234Z,9.00
2023-03-29T05:38:45.201Z,9.40
2023-03-29T05:41:16.026Z,9.50
2023-03-29T05:44:02.986Z,9.20
2023-03-29T05:46:31.687Z,11.00
2023-03-29T05:49:02.625Z,10.10
2023-03-29T05:51:57.008Z,11.30
2023-03-29T05:54:26.459Z,10.20
2023-03-29T05:56:54.831Z,9.40
2023-03-29T05:59:24.565Z,15.10
2023-03-29T06:01:53.045Z,10.10
2023-03-29T06:04:22.592Z,11.30
2023-03-29T06:07:12.749Z,11.20
2023-03-29T06:09:42.175Z,9.60
2023-03-29T06:12:10.794Z,11.10
2023-03-29T06:14:51.220Z,10.60
2023-03-29T06:17:29.359Z,10.50
2023-03-29T06:19:58.120Z,10.10
2023-03-29T06:24:56.731Z,10.20
2023-03-29T06:27:28.131Z,9.20
2023-03-29T06:29:56.949Z,12.40
2023-03-29T06:32:25.924Z,8.60
2023-03-29T06:35:02.720Z,9.50
2023-03-29T06:37:33.958Z,11.30
2023-03-29T06:40:31.399Z,8.90
2023-03-29T06:43:00.057Z,9.00
2023-03-29T06:46:04.651Z,9.10
2023-03-29T06:48:43.426Z,9.80
2023-03-29T06:51:11.768Z,13.70
2023-03-29T06:53:41.156Z,8.20
2023-03-29T06:56:09.896Z,9.90
2023-03-29T06:58:45.230Z,8.10
2023-03-29T07:01:34.997Z,7.50
2023-03-29T07:04:17.823Z,9.20
2023-03-29T07:07:07.852Z,7.70
2023-03-29T07:09:40.024Z,10.40
2023-03-29T07:12:41.063Z,7.80
2023-03-29T07:15:09.968Z,8.00
2023-03-29T07:18:08.475Z,9.10
2023-03-29T07:20:39.055Z,8.40
2023-03-29T07:23:11.908Z,8.90
2023-03-29T07:25:41.103Z,7.80
2023-03-29T07:28:09.415Z,7.70
2023-03-29T07:30:37.656Z,7.10
2023-03-29T07:33:13.464Z,7.30
2023-03-29T07:35:49.423Z,8.60
2023-03-29T07:38:18.702Z,7.00
2023-03-29T07:40:54.658Z,8.20
2023-03-29T07:43:31.597Z,7.10
2023-03-29T07:46:05.309Z,7.10
2023-03-29T07:48:37.225Z,7.70
2023-03-29T07:51:16.497Z,7.10
2023-03-29T07:53:53.328Z,7.70
2023-03-29T07:56:47.727Z,8.30
2023-03-29T07:59:28.738Z,8.10
2023-03-29T08:02:06.791Z,8.70
2023-03-29T08:04:41.308Z,8.30
2023-03-29T08:07:21.769Z,13.60
2023-03-29T08:10:10.456Z,7.30
2023-03-29T08:12:53.934Z,7.10
2023-03-29T08:15:28.211Z,8.60
2023-03-29T08:17:56.883Z,8.10
2023-03-29T08:20:28.233Z,9.50
2023-03-29T08:22:59.403Z,8.30
2023-03-29T08:25:47.256Z,7.90
2023-03-29T08:28:17.069Z,8.60
2023-03-29T08:30:48.345Z,8.80
2023-03-29T08:33:17.192Z,8.50
2023-03-29T08:35:46.533Z,7.10
2023-03-29T08:38:22.784Z,7.50
2023-03-29T08:40:51.329Z,9.90
2023-03-29T08:43:20.497Z,10.40
2023-03-29T08:46:37.313Z,6.90
2023-03-29T08:49:20.061Z,9.50
2023-03-29T08:51:54.264Z,8.90
2023-03-29T08:54:29.294Z,7.30
2023-03-29T08:57:31.880Z,8.00
2023-03-29T09:00:13.415Z,7.60
2023-03-29T09:02:43.922Z,10.50
2023-03-29T09:05:25.921Z,7.70
2023-03-29T09:08:13.840Z,8.50
2023-03-29T09:11:01.010Z,8.80
2023-03-29T09:13:43.143Z,8.80
2023-03-29T09:16:20.552Z,8.40
2023-03-29T09:18:51.468Z,14.10
2023-03-29T09:21:49.856Z,7.20
2023-03-29T09:24:44.556Z,8.30
2023-03-29T09:27:23.169Z,8.80
2023-03-29T09:32:53.880Z,7.70
2023-03-29T09:35:36.016Z,6.50
2023-03-29T09:38:09.534Z,6.70
2023-03-29T09:40:53.440Z,8.10
2023-03-29T09:43:36.358Z,7.50
2023-03-29T09:46:17.001Z,7.60
2023-03-29T09:48:46.579Z,7.00
2023-03-29T09:51:16.547Z,6.20
2023-03-29T09:53:45.337Z,7.30
2023-03-29T09:56:19.751Z,7.80
2023-03-29T09:58:51.508Z,8.30
2023-03-29T10:01:20.488Z,7.40
2023-03-29T10:06:26.997Z,10.70
2023-03-29T10:08:59.512Z,7.70
2023-03-29T10:11:37.065Z,7.50
2023-03-29T10:14:13.657Z,6.30
2023-03-29T10:16:47.710Z,7.20
2023-03-29T10:19:35.878Z,18.40
2023-03-29T10:22:16.535Z,7.70
2023-03-29T10:24:51.480Z,6.10
2023-03-29T10:27:24.236Z,7.30
2023-03-29T10:29:54.353Z,6.30
2023-03-29T10:32:23.203Z,7.90
2023-03-29T10:34:52.284Z,6.30
2023-03-29T10:37:23.262Z,6.70
2023-03-29T10:39:52.125Z,7.70
2023-03-29T10:42:24.396Z,6.10
2023-03-29T10:44:55.537Z,12.40
2023-03-29T10:47:24.883Z,5.90
2023-03-29T10:49:57.073Z,5.70
2023-03-29T10:52:26.135Z,6.80
2023-03-29T10:54:56.525Z,5.50
2023-03-29T10:57:45.173Z,6.60
2023-03-29T11:00:18.941Z,7.80
2023-03-29T11:03:06.445Z,5.70
2023-03-29T11:05:43.259Z,7.10
2023-03-29T11:08:15.196Z,8.50
2023-03-29T11:10:55.660Z,5.10
2023-03-29T11:13:51.778Z,5.30
2023-03-29T11:16:59.707Z,6.30
2023-03-29T11:20:00.266Z,5.10
2023-03-29T11:22:56.751Z,7.60
2023-03-29T11:25:59.328Z,4.30
2023-03-29T11:28:28.733Z,3.40
2023-03-29T11:34:19.248Z,6.90
2023-03-29T11:36:50.672Z,4.30
2023-03-29T11:39:36.998Z,4.10
2023-03-29T11:42:17.861Z,3.70
2023-03-29T11:44:48.594Z,7.40
2023-03-29T11:47:23.187Z,4.50
2023-03-29T11:49:57.599Z,4.50
2023-03-29T11:52:32.843Z,4.40
2023-03-29T11:55:05.276Z,5.70
2023-03-29T11:57:56.767Z,3.50
2023-03-29T12:00:31.002Z,12.30
2023-03-29T12:03:07.697Z,6.20
2023-03-29T12:06:04.517Z,7.10
2023-03-29T12:08:42.389Z,5.70
2023-03-29T12:11:29.420Z,6.10
2023-03-29T12:14:15.708Z,4.20
2023-03-29T12:16:57.315Z,5.30
2023-03-29T12:19:31.674Z,5.30
2023-03-29T12:22:01.739Z,7.60
2023-03-29T12:24:32.684Z,8.30
2023-03-29T12:27:22.508Z,6.50
2023-03-29T12:30:18.407Z,5.60
2023-03-29T12:32:56.264Z,6.80
2023-03-29T12:35:53.309Z,8.10
2023-03-29T12:38:57.161Z,5.10
2023-03-29T12:41:48.860Z,4.40
2023-03-29T12:45:00.362Z,9.00
2023-03-29T12:47:45.761Z,5.30
2023-03-29T12:50:28.655Z,9.40
2023-03-29T12:53:15.095Z,6.30
2023-03-29T12:55:43.677Z,5.50
2023-03-29T12:58:30.807Z,6.00
2023-03-29T13:01:31.567Z,5.60
2023-03-29T13:03:59.613Z,4.90
2023-03-29T13:06:27.579Z,8.50
2023-03-29T13:09:20.792Z,5.80
2023-03-29T13:12:15.942Z,8.00
2023-03-29T13:14:49.959Z,5.90
2023-03-29T13:17:52.911Z,5.70
2023-03-29T13:20:30.257Z,6.50
2023-03-29T13:23:14.577Z,5.20
2023-03-29T13:26:03.057Z,6.30
2023-03-29T13:28:57.943Z,6.00
2023-03-29T13:31:26.800Z,5.60
2023-03-29T13:34:17.871Z,5.30
2023-03-29T13:36:53.756Z,5.80
2023-03-29T13:39:24.686Z,7.50
2023-03-29T13:41:54.653Z,6.20
2023-03-29T13:44:22.728Z,6.50
2023-03-29T13:47:22.041Z,5.80
2023-03-29T13:52:50.034Z,5.90
2023-03-29T13:55:24.669Z,6.10
2023-03-29T13:58:15.964Z,6.90
2023-03-29T14:00:54.306Z,6.90
2023-03-29T14:03:29.832Z,6.60
2023-03-29T14:06:01.265Z,6.10
2023-03-29T14:08:34.720Z,7.60
2023-03-29T14:11:07.045Z,7.80
2023-03-29T14:13:35.622Z,9.30
2023-03-29T14:16:09.196Z,6.00
2023-03-29T14:18:41.288Z,6.50
2023-03-29T14:21:12.681Z,5.90
2023-03-29T14:23:44.998Z,6.50
2023-03-29T14:26:19.730Z,5.90
2023-03-29T14:28:49.643Z,5.80
2023-03-29T14:31:23.778Z,6.10
2023-03-29T14:33:53.766Z,5.80
2023-03-29T14:36:23.367Z,6.10
2023-03-29T14:38:59.621Z,16.70
2023-03-29T14:41:32.621Z,5.50
2023-03-29T14:44:03.047Z,6.10
2023-03-29T14:46:31.828Z,5.60
2023-03-29T14:49:02.264Z,5.90
2023-03-29T14:51:31.364Z,5.50
2023-03-29T14:54:03.292Z,5.90
2023-03-29T14:56:33.135Z,6.10
2023-03-29T14:59:04.169Z,5.40
2023-03-29T15:01:32.495Z,6.90
2023-03-29T15:04:09.276Z,7.60
2023-03-29T15:06:44.079Z,4.90
2023-03-29T15:09:25.117Z,7.00
2023-03-29T15:11:58.753Z,7.00
2023-03-29T15:14:33.878Z,5.70
2023-03-29T15:17:22.874Z,5.60
2023-03-29T15:19:59.477Z,6.10
2023-03-29T15:22:34.619Z,8.00
2023-03-29T15:25:03.350Z,6.70
2023-03-29T15:27:44.440Z,7.20
2023-03-29T15:30:18.270Z,8.30
2023-03-29T15:32:46.646Z,7.50
2023-03-29T15:35:25.987Z,7.50
2023-03-29T15:37:54.227Z,7.30
2023-03-29T15:40:28.254Z,5.30
2023-03-29T15:42:56.910Z,7.00
2023-03-29T15:45:26.082Z,7.00
2023-03-29T15:47:54.403Z,5.80
2023-03-29T15:50:23.463Z,5.70
2023-03-29T15:52:52.907Z,10.00
2023-03-29T15:55:21.179Z,6.80
2023-03-29T15:57:52.869Z,7.40
2023-03-29T16:00:22.493Z,7.50
2023-03-29T16:05:20.055Z,8.40
2023-03-29T16:07:48.408Z,6.60
2023-03-29T16:10:16.698Z,9.60
2023-03-29T16:12:44.783Z,8.00
2023-03-29T16:15:20.538Z,7.20
2023-03-29T16:17:48.818Z,7.70
2023-03-29T16:20:20.179Z,6.70
2023-03-29T16:22:49.234Z,7.70
2023-03-29T16:25:22.839Z,7.60
2023-03-29T16:27:55.639Z,7.20
2023-03-29T16:30:24.946Z,7.00
2023-03-29T16:32:53.232Z,8.30
2023-03-29T16:35:33.270Z,7.40
2023-03-29T16:38:01.630Z,9.70
2023-03-29T16:40:29.826Z,8.80
2023-03-29T16:42:58.073Z,7.40
2023-03-29T16:45:28.694Z,7.40
2023-03-29T16:47:57.319Z,8.10
2023-03-29T16:50:25.754Z,8.60
2023-03-29T16:52:54.239Z,7.20
2023-03-29T16:55:22.975Z,8.00
2023-03-29T16:57:51.214Z,9.40
2023-03-29T17:00:20.452Z,8.50
2023-03-29T17:02:51.762Z,9.40
2023-03-29T17:05:20.123Z,10.00
2023-03-29T17:07:48.253Z,8.40
2023-03-29T17:10:16.641Z,8.30
2023-03-29T17:12:45.092Z,10.00
2023-03-29T17:15:13.215Z,9.10
2023-03-29T17:17:41.661Z,9.60
2023-03-29T17:20:14.422Z,8.40
2023-03-29T17:22:42.646Z,7.50
2023-03-29T17:25:10.938Z,13.80
2023-03-29T17:27:39.052Z,8.50
2023-03-29T17:30:10.621Z,8.00
2023-03-29T17:32:40.231Z,7.60
2023-03-29T17:35:13.630Z,7.40
2023-03-29T17:37:42.666Z,8.40
2023-03-29T17:40:14.043Z,8.60
2023-03-29T17:42:43.991Z,8.60
2023-03-29T17:45:12.136Z,8.10
2023-03-29T17:47:40.957Z,8.70
2023-03-29T17:50:11.497Z,9.00
2023-03-29T17:52:40.178Z,9.10
2023-03-29T17:55:11.435Z,8.40
2023-03-29T17:57:40.836Z,8.00
2023-03-29T18:02:39.904Z,6.60
2023-03-29T18:05:09.646Z,7.90
2023-03-29T18:07:38.412Z,6.90
2023-03-29T18:10:07.850Z,7.10
2023-03-29T18:12:36.762Z,6.90
2023-03-29T18:15:06.395Z,6.80
2023-03-29T18:17:36.550Z,7.10
2023-03-29T18:20:11.837Z,10.10
2023-03-29T18:22:43.922Z,8.70
2023-03-29T18:25:12.160Z,8.30
2023-03-29T18:27:41.019Z,10.20
2023-03-29T18:30:09.929Z,8.90
2023-03-29T18:32:38.325Z,8.10
2023-03-29T18:35:10.258Z,13.20
2023-03-29T18:37:38.956Z,9.60
2023-03-29T18:40:08.396Z,10.40
2023-03-29T18:42:36.739Z,9.10
2023-03-29T18:45:05.811Z,12.10
2023-03-29T18:47:33.913Z,17.90
2023-03-29T18:50:02.972Z,27.30
2023-03-29T18:52:31.224Z,40.10
2023-03-29T18:54:59.322Z,35.60
2023-03-29T18:57:28.139Z,28.20
2023-03-29T18:59:56.686Z,29.80
2023-03-29T19:02:27.373Z,29.60
2023-03-29T19:04:57.286Z,24.10
2023-03-29T19:07:25.641Z,19.90
2023-03-29T19:09:53.698Z,16.80
2023-03-29T19:12:24.627Z,20.00
2023-03-29T19:14:52.859Z,56.60
2023-03-29T19:17:21.802Z,44.80
2023-03-29T19:19:49.956Z,47.90
2023-03-29T19:22:18.142Z,32.50
2023-03-29T19:24:46.402Z,39.90
2023-03-29T19:27:14.796Z,30.10
2023-03-29T19:29:42.854Z,28.10
2023-03-29T19:32:11.192Z,35.70
2023-03-29T19:34:39.287Z,60.20
2023-03-29T19:37:07.336Z,38.80
2023-03-29T19:39:36.186Z,38.30
2023-03-29T19:42:04.422Z,47.40
2023-03-29T19:44:33.822Z,52.60
2023-03-29T19:47:02.165Z,40.10
2023-03-29T19:49:30.680Z,26.20
2023-03-29T19:51:59.272Z,19.70
2023-03-29T19:54:27.334Z,20.40
2023-03-29T19:56:57.416Z,24.70
2023-03-29T19:59:27.223Z,20.70
2023-03-29T20:01:57.102Z,16.20
2023-03-29T20:04:25.499Z,17.30
2023-03-29T20:06:53.617Z,17.50
2023-03-29T20:09:22.000Z,15.90
2023-03-29T20:11:50.682Z,16.60
2023-03-29T20:14:18.954Z,22.90
2023-03-29T20:16:47.110Z,26.70
2023-03-29T20:19:17.710Z,28.50
2023-03-29T20:21:45.907Z,19.30
2023-03-29T20:24:14.331Z,21.70
2023-03-29T20:26:42.503Z,22.10
2023-03-29T20:29:10.541Z,25.10
2023-03-29T20:31:38.677Z,20.10
2023-03-29T20:34:07.267Z,24.90
2023-03-29T20:36:35.827Z,29.20
2023-03-29T20:39:04.990Z,29.60
2023-03-29T20:41:33.982Z,26.90
2023-03-29T20:44:03.026Z,22.50
2023-03-29T20:46:35.045Z,24.20
2023-03-29T20:49:07.402Z,17.30
2023-03-29T20:51:36.331Z,15.70
2023-03-29T20:54:07.844Z,14.10
2023-03-29T20:56:39.827Z,14.70
2023-03-29T20:59:10.869Z,18.50
2023-03-29T21:01:41.194Z,20.30
2023-03-29T21:04:11.065Z,25.20
2023-03-29T21:06:39.803Z,28.20
2023-03-29T21:09:08.705Z,29.80
2023-03-29T21:11:36.935Z,44.80
2023-03-29T21:14:04.992Z,47.10
2023-03-29T21:16:33.296Z,43.10
2023-03-29T21:19:01.593Z,34.20
2023-03-29T21:21:29.754Z,40.90
2023-03-29T21:23:57.902Z,33.60
2023-03-29T21:26:26.580Z,35.50
2023-03-29T21:28:54.779Z,30.30
2023-03-29T21:31:22.895Z,33.40
2023-03-29T21:33:53.031Z,28.10
2023-03-29T21:36:21.143Z,32.20
2023-03-29T21:38:50.317Z,29.80
2023-03-29T21:41:19.200Z,45.70
2023-03-29T21:43:47.371Z,43.30
2023-03-29T21:46:15.726Z,37.90
2023-03-29T21:48:44.052Z,34.60
2023-03-29T21:51:12.197Z,37.50
2023-03-29T21:53:40.481Z,27.70
2023-03-29T21:56:12.209Z,33.50
2023-03-29T21:58:40.613Z,28.50
2023-03-29T22:01:10.522Z,34.80
2023-03-29T22:03:39.009Z,28.70
2023-03-29T22:06:09.512Z,24.90
2023-03-29T22:08:40.527Z,25.30
2023-03-29T22:11:14.074Z,25.80
2023-03-29T22:13:43.496Z,29.90
2023-03-29T22:18:49.757Z,29.90
2023-03-29T22:21:25.233Z,27.60
2023-03-29T22:23:56.064Z,26.20
2023-03-29T22:26:27.847Z,25.70
2023-03-29T22:28:57.486Z,26.90
2023-03-29T22:31:27.400Z,25.70
2023-03-29T22:33:56.498Z,23.10
2023-03-29T22:36:27.821Z,24.60
2023-03-29T22:38:56.367Z,24.40
2023-03-29T22:41:27.740Z,27.30
2023-03-29T22:43:58.093Z,20.20
2023-03-29T22:46:27.346Z,25.90
2023-03-29T22:51:24.014Z,42.40
2023-03-29T22:53:52.082Z,20.60
2023-03-29T22:56:20.552Z,23.80
2023-03-29T22:58:48.654Z,21.90
2023-03-29T23:01:17.006Z,55.40
2023-03-29T23:03:45.625Z,41.30
2023-03-29T23:06:13.711Z,29.00
2023-03-29T23:08:41.900Z,27.30
2023-03-29T23:11:10.221Z,26.10
2023-03-29T23:13:38.887Z,23.70
2023-03-29T23:16:07.882Z,27.90
2023-03-29T23:18:37.660Z,26.60
2023-03-29T23:21:09.066Z,31.40
2023-03-29T23:23:37.590Z,33.30
2023-03-29T23:26:06.589Z,48.50
2023-03-29T23:28:35.448Z,32.30
2023-03-29T23:31:10.378Z,43.30
2023-03-29T23:33:41.323Z,107.00
2023-03-29T23:36:12.817Z,75.00
2023-03-29T23:38:42.483Z,74.50
2023-03-29T23:41:12.946Z,66.10
2023-03-29T23:43:43.468Z,67.50
2023-03-29T23:46:15.283Z,57.60
2023-03-29T23:48:49.220Z,52.40
2023-03-29T23:51:23.045Z,49.10
2023-03-29T23:53:52.014Z,49.40
2023-03-29T23:56:21.736Z,38.40
2023-03-29T23:58:50.169Z,48.40
